createdAt,value
2023-09-12T00:00:46.264Z,10.30
2023-09-12T00:01:48.940Z,9.98
2023-09-12T00:02:51.672Z,10.35
2023-09-12T00:03:54.501Z,10.83
2023-09-12T00:04:57.209Z,9.88
2023-09-12T00:06:01.824Z,10.05
2023-09-12T00:07:04.645Z,10.55
2023-09-12T00:08:07.900Z,10.38
2023-09-12T00:09:10.581Z,10.28
2023-09-12T00:10:13.333Z,10.58
2023-09-12T00:11:16.035Z,9.73
2023-09-12T00:12:18.670Z,10.40
2023-09-12T00:13:21.313Z,10.07
2023-09-12T00:14:23.950Z,9.87
2023-09-12T00:15:26.605Z,10.05
2023-09-12T00:16:29.304Z,10.07
2023-09-12T00:17:32.319Z,9.33
2023-09-12T00:18:35.904Z,10.02
2023-09-12T00:19:38.557Z,10.00
2023-09-12T00:20:41.333Z,9.53
2023-09-12T00:21:44.022Z,10.15
2023-09-12T00:22:47.407Z,10.63
2023-09-12T00:23:50.039Z,10.52
2023-09-12T00:24:52.613Z,10.70
2023-09-12T00:25:55.305Z,10.58
2023-09-12T00:26:58.004Z,10.93
2023-09-12T00:28:00.599Z,10.78
2023-09-12T00:29:03.262Z,10.50
2023-09-12T00:30:06.542Z,10.57
2023-09-12T00:31:09.237Z,10.58
2023-09-12T00:32:11.852Z,10.28
2023-09-12T00:33:14.535Z,10.42
2023-09-12T00:34:18.568Z,10.87
2023-09-12T00:35:21.288Z,10.63
2023-09-12T00:36:24.013Z,10.65
2023-09-12T00:37:26.676Z,10.30
2023-09-12T00:38:29.316Z,9.83
2023-09-12T00:39:32.071Z,9.62
2023-09-12T00:40:34.742Z,10.18
2023-09-12T00:41:37.374Z,10.53
2023-09-12T00:42:40.051Z,11.12
2023-09-12T00:43:43.163Z,11.40
2023-09-12T00:44:45.762Z,10.95
2023-09-12T00:45:48.527Z,10.68
2023-09-12T00:46:52.849Z,10.63
2023-09-12T00:47:55.980Z,10.60
2023-09-12T00:49:00.816Z,10.65
2023-09-12T00:50:04.236Z,10.78
2023-09-12T00:51:07.327Z,10.47
2023-09-12T00:52:10.124Z,10.62
2023-09-12T00:53:13.447Z,10.70
2023-09-12T00:54:16.282Z,9.97
2023-09-12T00:55:19.051Z,10.12
2023-09-12T00:56:21.677Z,10.95
2023-09-12T00:57:25.366Z,11.43
2023-09-12T00:58:28.948Z,11.07
2023-09-12T00:59:31.922Z,10.78
2023-09-12T01:00:42.621Z,11.10
2023-09-12T01:01:45.758Z,10.85
2023-09-12T01:02:48.691Z,10.93
2023-09-12T01:03:51.565Z,11.50
2023-09-12T01:04:54.852Z,11.42
2023-09-12T01:05:59.200Z,11.25
2023-09-12T01:07:01.865Z,11.07
2023-09-12T01:08:04.817Z,11.35
2023-09-12T01:09:08.953Z,11.43
2023-09-12T01:10:11.968Z,12.53
2023-09-12T01:11:15.297Z,12.15
2023-09-12T01:12:18.870Z,11.88
2023-09-12T01:13:21.795Z,11.98
2023-09-12T01:14:24.510Z,12.30
2023-09-12T01:15:27.304Z,12.55
2023-09-12T01:16:29.992Z,12.53
2023-09-12T01:17:32.730Z,12.52
2023-09-12T01:18:35.739Z,12.43
2023-09-12T01:19:38.370Z,13.02
2023-09-12T01:20:43.632Z,12.80
2023-09-12T01:22:03.949Z,12.70
2023-09-12T01:23:25.423Z,12.25
2023-09-12T01:24:40.151Z,12.88
2023-09-12T01:26:04.818Z,12.87
2023-09-12T01:27:27.338Z,13.18
2023-09-12T01:28:35.794Z,12.95
2023-09-12T01:29:40.095Z,12.70
2023-09-12T01:30:43.722Z,12.92
2023-09-12T01:31:49.178Z,13.05
2023-09-12T01:32:52.275Z,13.72
2023-09-12T01:33:58.938Z,13.30
2023-09-12T01:35:01.837Z,12.53
2023-09-12T01:36:04.739Z,13.05
2023-09-12T01:37:07.412Z,12.68
2023-09-12T01:38:10.100Z,12.35
2023-09-12T01:39:12.914Z,11.87
2023-09-12T01:40:17.216Z,12.12
2023-09-12T01:41:20.353Z,12.27
2023-09-12T01:42:23.894Z,12.20
2023-09-12T01:43:28.254Z,11.90
2023-09-12T01:44:33.092Z,12.30
2023-09-12T01:45:37.220Z,11.53
2023-09-12T01:46:40.996Z,11.92
2023-09-12T01:47:44.271Z,11.50
2023-09-12T01:48:47.744Z,11.88
2023-09-12T01:49:53.931Z,11.72
2023-09-12T01:50:56.620Z,11.43
2023-09-12T01:52:00.496Z,11.07
2023-09-12T01:53:03.369Z,11.23
2023-09-12T01:54:07.269Z,11.87
2023-09-12T01:55:11.663Z,11.22
2023-09-12T01:56:14.681Z,11.88
2023-09-12T01:57:17.559Z,11.75
2023-09-12T01:58:20.733Z,11.75
2023-09-12T01:59:23.334Z,11.93
2023-09-12T02:00:26.164Z,11.90
2023-09-12T02:01:28.976Z,11.45
2023-09-12T02:02:31.679Z,11.52
2023-09-12T02:03:34.334Z,11.77
2023-09-12T02:04:37.028Z,11.85
2023-09-12T02:05:39.645Z,11.23
2023-09-12T02:06:42.386Z,12.03
2023-09-12T02:07:45.957Z,11.35
2023-09-12T02:08:48.598Z,10.67
2023-09-12T02:09:51.196Z,11.30
2023-09-12T02:10:53.769Z,11.27
2023-09-12T02:11:56.366Z,11.03
2023-09-12T02:12:59.014Z,11.15
2023-09-12T02:14:01.596Z,11.58
2023-09-12T02:15:04.881Z,12.00
2023-09-12T02:16:07.604Z,11.50
2023-09-12T02:17:10.469Z,11.60
2023-09-12T02:18:13.612Z,11.78
2023-09-12T02:19:16.289Z,11.17
2023-09-12T02:20:19.716Z,12.08
2023-09-12T02:21:22.377Z,11.37
2023-09-12T02:22:25.083Z,11.68
2023-09-12T02:23:27.694Z,11.50
2023-09-12T02:24:30.411Z,10.77
2023-09-12T02:25:33.149Z,10.93
2023-09-12T02:26:37.590Z,11.60
2023-09-12T02:27:40.349Z,11.13
2023-09-12T02:28:43.266Z,11.92
2023-09-12T02:29:46.231Z,11.52
2023-09-12T02:30:48.895Z,12.32
2023-09-12T02:32:12.036Z,11.80
2023-09-12T02:33:14.796Z,11.63
2023-09-12T02:34:38.058Z,11.63
2023-09-12T02:35:40.676Z,11.88
2023-09-12T02:36:43.306Z,11.33
2023-09-12T02:37:46.024Z,12.08
2023-09-12T02:38:48.613Z,11.55
2023-09-12T02:39:51.222Z,11.57
2023-09-12T02:40:53.878Z,12.03
2023-09-12T02:41:56.482Z,10.95
2023-09-12T02:42:59.163Z,11.25
2023-09-12T02:44:01.784Z,12.42
2023-09-12T02:45:05.159Z,12.72
2023-09-12T02:46:07.770Z,12.05
2023-09-12T02:47:10.396Z,12.52
2023-09-12T02:48:13.518Z,12.23
2023-09-12T02:49:16.972Z,12.90
2023-09-12T02:50:19.640Z,11.47
2023-09-12T02:51:22.384Z,12.45
2023-09-12T02:52:25.010Z,12.32
2023-09-12T02:53:27.629Z,12.02
2023-09-12T02:54:30.240Z,12.28
2023-09-12T02:55:32.919Z,11.60
2023-09-12T02:56:35.505Z,12.00
2023-09-12T02:57:38.111Z,12.10
2023-09-12T02:58:41.125Z,12.35
2023-09-12T02:59:43.965Z,11.48
2023-09-12T03:00:46.786Z,12.05
2023-09-12T03:01:49.461Z,11.68
2023-09-12T03:02:52.208Z,11.05
2023-09-12T03:03:55.343Z,11.07
2023-09-12T03:04:58.082Z,11.45
2023-09-12T03:06:02.647Z,11.25
2023-09-12T03:07:05.298Z,11.08
2023-09-12T03:08:08.444Z,10.83
2023-09-12T03:09:12.618Z,11.65
2023-09-12T03:10:15.300Z,11.40
2023-09-12T03:11:17.982Z,11.73
2023-09-12T03:12:20.601Z,11.70
2023-09-12T03:13:27.307Z,10.55
2023-09-12T03:14:30.230Z,10.82
2023-09-12T03:15:37.318Z,11.32
2023-09-12T03:16:40.997Z,11.67
2023-09-12T03:17:43.652Z,11.95
2023-09-12T03:18:46.636Z,12.88
2023-09-12T03:19:49.398Z,12.75
2023-09-12T03:20:52.007Z,11.92
2023-09-12T03:21:54.891Z,12.33
2023-09-12T03:22:57.553Z,12.47
2023-09-12T03:24:00.181Z,12.15
2023-09-12T03:25:03.575Z,11.95
2023-09-12T03:26:07.339Z,11.27
2023-09-12T03:27:09.999Z,12.25
2023-09-12T03:28:12.657Z,11.93
2023-09-12T03:29:15.266Z,11.62
2023-09-12T03:30:17.875Z,11.57
2023-09-12T03:31:20.512Z,11.30
2023-09-12T03:32:23.200Z,11.45
2023-09-12T03:33:25.879Z,10.87
2023-09-12T03:34:28.508Z,10.45
2023-09-12T03:35:33.041Z,10.60
2023-09-12T03:36:35.734Z,11.27
2023-09-12T03:37:41.341Z,10.58
2023-09-12T03:38:44.391Z,11.07
2023-09-12T03:39:47.158Z,11.42
2023-09-12T03:40:49.786Z,10.82
2023-09-12T03:41:52.490Z,10.65
2023-09-12T03:42:55.201Z,10.30
2023-09-12T03:43:58.113Z,11.05
2023-09-12T03:45:00.820Z,10.83
2023-09-12T03:46:04.740Z,9.93
2023-09-12T03:47:07.336Z,10.25
2023-09-12T03:48:10.396Z,10.40
2023-09-12T03:49:13.105Z,10.65
2023-09-12T03:50:15.733Z,10.58
2023-09-12T03:51:18.414Z,10.28
2023-09-12T03:52:21.049Z,10.38
2023-09-12T03:53:23.679Z,10.60
2023-09-12T03:54:26.309Z,10.48
2023-09-12T03:55:29.142Z,11.73
2023-09-12T03:56:32.436Z,11.42
2023-09-12T03:57:35.170Z,11.07
2023-09-12T03:58:37.865Z,10.80
2023-09-12T03:59:40.519Z,10.72
2023-09-12T04:00:43.312Z,10.10
2023-09-12T04:01:46.122Z,9.95
2023-09-12T04:02:48.831Z,10.53
2023-09-12T04:03:51.653Z,10.65
2023-09-12T04:04:54.475Z,10.05
2023-09-12T04:05:57.213Z,10.38
2023-09-12T04:06:59.817Z,9.95
2023-09-12T04:08:02.457Z,10.80
2023-09-12T04:09:05.163Z,10.80
2023-09-12T04:10:07.988Z,10.55
2023-09-12T04:11:11.886Z,10.78
2023-09-12T04:12:14.590Z,10.87
2023-09-12T04:13:17.230Z,10.80
2023-09-12T04:14:19.869Z,11.02
2023-09-12T04:15:22.665Z,10.97
2023-09-12T04:16:25.964Z,11.28
2023-09-12T04:17:28.769Z,11.05
2023-09-12T04:18:31.509Z,11.20
2023-09-12T04:19:34.160Z,11.12
2023-09-12T04:20:36.746Z,10.73
2023-09-12T04:21:39.426Z,10.88
2023-09-12T04:22:43.527Z,11.90
2023-09-12T04:23:46.486Z,11.05
2023-09-12T04:24:49.196Z,10.78
2023-09-12T04:25:51.817Z,11.17
2023-09-12T04:26:55.222Z,11.38
2023-09-12T04:27:57.943Z,11.10
2023-09-12T04:29:00.583Z,11.58
2023-09-12T04:30:03.313Z,11.73
2023-09-12T04:31:06.553Z,11.87
2023-09-12T04:32:09.290Z,11.43
2023-09-12T04:33:11.953Z,12.10
2023-09-12T04:34:14.676Z,12.12
2023-09-12T04:35:18.228Z,11.68
2023-09-12T04:36:21.992Z,11.73
2023-09-12T04:37:24.636Z,11.27
2023-09-12T04:38:27.915Z,11.32
2023-09-12T04:39:31.315Z,11.87
2023-09-12T04:40:34.310Z,12.45
2023-09-12T04:41:36.951Z,12.08
2023-09-12T04:42:39.668Z,11.93
2023-09-12T04:43:42.603Z,11.93
2023-09-12T04:44:45.295Z,12.20
2023-09-12T04:45:48.003Z,11.50
2023-09-12T04:46:50.609Z,12.17
2023-09-12T04:47:53.203Z,12.25
2023-09-12T04:48:55.825Z,12.82
2023-09-12T04:49:58.491Z,12.63
2023-09-12T04:51:01.168Z,12.68
2023-09-12T04:52:03.983Z,12.20
2023-09-12T04:53:06.575Z,12.48
2023-09-12T04:54:09.176Z,12.38
2023-09-12T04:55:11.791Z,12.25
2023-09-12T04:56:14.428Z,13.07
2023-09-12T04:57:17.133Z,12.97
2023-09-12T04:58:19.760Z,12.93
2023-09-12T04:59:22.395Z,13.27
2023-09-12T05:00:25.062Z,12.77
2023-09-12T05:01:27.921Z,13.38
2023-09-12T05:02:30.650Z,12.67
2023-09-12T05:03:34.855Z,12.03
2023-09-12T05:04:37.729Z,12.73
2023-09-12T05:05:40.433Z,12.48
2023-09-12T05:06:43.406Z,12.78
2023-09-12T05:07:46.240Z,12.35
2023-09-12T05:08:48.901Z,12.12
2023-09-12T05:09:51.982Z,12.55
2023-09-12T05:10:54.674Z,12.33
2023-09-12T05:11:57.629Z,12.05
2023-09-12T05:13:00.486Z,11.97
2023-09-12T05:14:04.925Z,12.48
2023-09-12T05:15:08.229Z,11.97
2023-09-12T05:16:10.882Z,11.68
2023-09-12T05:17:13.631Z,11.98
2023-09-12T05:18:16.499Z,11.87
2023-09-12T05:19:19.531Z,12.08
2023-09-12T05:20:22.682Z,11.67
2023-09-12T05:21:25.727Z,13.27
2023-09-12T05:22:29.200Z,12.60
2023-09-12T05:23:32.486Z,12.47
2023-09-12T05:25:23.193Z,12.08
2023-09-12T05:26:26.685Z,12.42
2023-09-12T05:27:30.457Z,12.35
2023-09-12T05:28:33.347Z,12.53
2023-09-12T05:29:36.026Z,12.67
2023-09-12T05:30:40.197Z,12.60
2023-09-12T05:31:43.357Z,13.10
2023-09-12T05:32:48.231Z,12.73
2023-09-12T05:33:51.019Z,12.70
2023-09-12T05:35:03.208Z,12.82
2023-09-12T05:36:09.742Z,13.48
2023-09-12T05:37:12.637Z,12.88
2023-09-12T05:38:15.488Z,12.25
2023-09-12T05:39:19.324Z,14.45
2023-09-12T05:40:22.524Z,51.52
2023-09-12T05:41:25.425Z,63.62
2023-09-12T05:42:28.144Z,25.58
2023-09-12T05:43:32.049Z,25.23
2023-09-12T05:44:34.944Z,28.07
2023-09-12T05:45:37.736Z,34.83
2023-09-12T05:46:41.080Z,21.83
2023-09-12T05:47:44.466Z,20.22
2023-09-12T05:48:49.795Z,18.63
2023-09-12T05:49:53.613Z,15.95
2023-09-12T05:50:57.145Z,16.58
2023-09-12T05:52:02.910Z,16.28
2023-09-12T05:53:06.886Z,15.10
2023-09-12T05:54:11.969Z,13.45
2023-09-12T05:55:16.622Z,12.88
2023-09-12T05:56:22.954Z,12.53
2023-09-12T05:57:27.041Z,12.50
2023-09-12T05:58:31.064Z,12.68
2023-09-12T05:59:35.926Z,12.42
2023-09-12T06:00:38.756Z,11.67
2023-09-12T06:01:42.013Z,11.40
2023-09-12T06:02:45.310Z,11.87
2023-09-12T06:03:48.672Z,11.98
2023-09-12T06:04:52.149Z,10.80
2023-09-12T06:05:55.167Z,11.30
2023-09-12T06:06:58.001Z,14.43
2023-09-12T06:08:01.026Z,11.43
2023-09-12T06:09:04.806Z,11.03
2023-09-12T06:10:08.776Z,11.05
2023-09-12T06:11:11.426Z,8.52
2023-09-12T06:12:14.096Z,1.90
2023-09-12T06:13:16.764Z,0.00
2023-09-12T06:14:19.379Z,0.00
2023-09-12T06:15:22.323Z,0.00
2023-09-12T06:16:25.669Z,0.00
2023-09-12T06:17:28.550Z,0.00
2023-09-12T06:18:32.390Z,0.00
2023-09-12T06:19:35.131Z,0.00
2023-09-12T06:20:37.860Z,0.00
2023-09-12T06:21:40.491Z,0.00
2023-09-12T06:22:44.517Z,0.00
2023-09-12T06:23:47.137Z,0.00
2023-09-12T06:24:51.693Z,0.00
2023-09-12T06:25:54.404Z,0.00
2023-09-12T06:26:58.463Z,0.00
2023-09-12T06:28:01.250Z,0.00
2023-09-12T06:29:04.112Z,0.00
2023-09-12T06:30:07.539Z,0.00
2023-09-12T06:31:13.612Z,0.00
2023-09-12T06:32:16.974Z,0.00
2023-09-12T06:33:20.339Z,0.00
2023-09-12T06:34:23.551Z,0.00
2023-09-12T06:35:26.570Z,0.00
2023-09-12T06:36:33.062Z,0.00
2023-09-12T06:37:35.903Z,0.00
2023-09-12T06:38:38.612Z,0.00
2023-09-12T06:39:41.651Z,0.00
2023-09-12T06:40:45.321Z,0.00
2023-09-12T06:41:48.435Z,0.00
2023-09-12T06:42:51.385Z,0.00
2023-09-12T06:43:54.386Z,0.00
2023-09-12T06:44:57.621Z,0.00
2023-09-12T06:46:01.320Z,0.00
2023-09-12T06:47:08.353Z,0.00
2023-09-12T06:48:12.865Z,0.00
2023-09-12T06:49:16.581Z,0.00
2023-09-12T06:50:20.739Z,0.00
2023-09-12T06:51:34.780Z,0.00
2023-09-12T06:52:41.148Z,0.00
2023-09-12T06:53:45.574Z,0.00
2023-09-12T06:54:50.160Z,0.00
2023-09-12T06:55:54.547Z,0.00
2023-09-12T06:56:57.839Z,0.00
2023-09-12T06:58:01.158Z,0.00
2023-09-12T06:59:06.929Z,0.00
2023-09-12T07:00:10.709Z,0.00
2023-09-12T07:01:13.448Z,0.00
2023-09-12T07:02:16.170Z,0.00
2023-09-12T07:03:18.897Z,0.00
2023-09-12T07:04:21.621Z,0.00
2023-09-12T07:05:24.303Z,0.00
2023-09-12T07:06:26.990Z,0.00
2023-09-12T07:07:29.702Z,0.00
2023-09-12T07:08:33.462Z,0.00
2023-09-12T07:09:36.121Z,0.00
2023-09-12T07:10:38.742Z,0.00
2023-09-12T07:11:42.753Z,0.00
2023-09-12T07:12:45.434Z,0.00
2023-09-12T07:13:48.918Z,0.00
2023-09-12T07:14:53.013Z,0.00
2023-09-12T07:15:58.256Z,0.00
2023-09-12T07:17:00.881Z,0.00
2023-09-12T07:18:03.611Z,0.00
2023-09-12T07:19:06.467Z,0.00
2023-09-12T07:20:12.795Z,0.00
2023-09-12T07:21:15.618Z,0.00
2023-09-12T07:22:18.283Z,0.00
2023-09-12T07:23:20.924Z,0.00
2023-09-12T07:24:27.349Z,0.00
2023-09-12T07:25:30.023Z,0.00
2023-09-12T07:26:32.697Z,0.00
2023-09-12T07:27:35.323Z,0.00
2023-09-12T07:28:38.598Z,0.00
2023-09-12T07:29:41.214Z,0.00
2023-09-12T07:30:47.282Z,0.00
2023-09-12T07:31:53.659Z,0.00
2023-09-12T07:32:56.357Z,0.00
2023-09-12T07:33:59.096Z,0.00
2023-09-12T07:35:02.190Z,0.00
2023-09-12T07:36:05.101Z,0.00
2023-09-12T07:37:07.841Z,0.00
2023-09-12T07:38:11.184Z,0.00
2023-09-12T07:39:14.449Z,0.00
2023-09-12T07:40:17.728Z,0.00
2023-09-12T07:41:20.742Z,0.00
2023-09-12T07:42:25.227Z,0.00
2023-09-12T07:43:31.099Z,0.00
2023-09-12T07:44:36.418Z,0.00
2023-09-12T07:47:20.122Z,0.00
2023-09-12T07:48:23.776Z,0.00
2023-09-12T07:49:28.089Z,0.00
2023-09-12T07:50:31.804Z,0.00
2023-09-12T07:51:35.827Z,0.00
2023-09-12T07:52:39.906Z,0.00
2023-09-12T07:53:43.529Z,0.00
2023-09-12T07:54:47.464Z,0.00
2023-09-12T07:55:50.339Z,0.00
2023-09-12T07:56:53.067Z,0.00
2023-09-12T07:57:56.005Z,0.00
2023-09-12T07:58:59.073Z,0.00
2023-09-12T08:00:02.556Z,0.00
2023-09-12T08:01:11.526Z,0.00
2023-09-12T08:02:14.123Z,0.00
2023-09-12T08:03:17.110Z,0.00
2023-09-12T08:04:19.947Z,0.00
2023-09-12T08:05:22.662Z,0.00
2023-09-12T08:06:25.560Z,0.00
2023-09-12T08:07:28.247Z,0.00
2023-09-12T08:08:31.845Z,0.00
2023-09-12T08:09:54.257Z,0.00
2023-09-12T08:10:58.030Z,0.00
2023-09-12T08:12:00.680Z,0.00
2023-09-12T08:13:03.626Z,0.00
2023-09-12T08:14:06.270Z,0.00
2023-09-12T08:15:09.804Z,0.00
2023-09-12T08:16:12.757Z,0.00
2023-09-12T08:17:16.875Z,0.00
2023-09-12T08:18:19.537Z,0.00
2023-09-12T08:19:22.189Z,0.00
2023-09-12T08:20:24.810Z,0.00
2023-09-12T08:21:27.483Z,0.00
2023-09-12T08:22:30.042Z,0.00
2023-09-12T08:23:33.174Z,0.00
2023-09-12T08:24:36.729Z,0.00
2023-09-12T08:25:41.116Z,0.00
2023-09-12T08:26:43.760Z,0.00
2023-09-12T08:27:46.756Z,0.00
2023-09-12T08:28:49.612Z,0.00
2023-09-12T08:29:52.276Z,0.00
2023-09-12T08:30:55.379Z,0.00
2023-09-12T08:31:58.900Z,0.00
2023-09-12T08:33:04.453Z,0.00
2023-09-12T08:34:07.627Z,0.00
2023-09-12T08:35:11.599Z,0.00
2023-09-12T08:36:21.588Z,0.00
2023-09-12T08:37:24.432Z,0.00
2023-09-12T08:38:32.616Z,0.00
2023-09-12T08:39:48.175Z,0.00
2023-09-12T08:40:53.517Z,0.00
2023-09-12T08:41:58.012Z,0.00
2023-09-12T08:43:01.591Z,0.00
2023-09-12T08:44:08.007Z,0.00
2023-09-12T08:45:17.823Z,0.00
2023-09-12T08:46:43.388Z,3.22
2023-09-12T08:47:51.460Z,5.08
2023-09-12T08:49:02.869Z,5.52
2023-09-12T08:50:07.081Z,5.62
2023-09-12T08:51:13.769Z,5.93
2023-09-12T08:52:16.560Z,3.07
2023-09-12T08:53:21.869Z,0.02
2023-09-12T08:54:24.547Z,0.00
2023-09-12T08:55:29.955Z,0.00
2023-09-12T08:56:34.115Z,0.00
2023-09-12T08:57:40.850Z,0.00
2023-09-12T08:58:44.602Z,0.00
2023-09-12T08:59:48.965Z,0.00
2023-09-12T09:00:52.225Z,0.00
2023-09-12T09:01:57.040Z,0.00
2023-09-12T09:03:00.503Z,2.57
2023-09-12T09:04:04.865Z,1.58
2023-09-12T09:05:10.235Z,0.47
2023-09-12T09:06:14.330Z,0.02
2023-09-12T09:07:18.981Z,0.00
2023-09-12T09:08:23.011Z,0.00
2023-09-12T09:09:25.886Z,0.00
2023-09-12T09:10:42.613Z,0.00
2023-09-12T09:11:53.284Z,0.00
2023-09-12T09:12:56.003Z,0.00
2023-09-12T09:13:58.756Z,0.00
2023-09-12T09:15:30.475Z,0.00
2023-09-12T09:16:33.449Z,0.00
2023-09-12T09:17:38.567Z,0.00
2023-09-12T09:18:56.284Z,0.00
2023-09-12T09:20:00.674Z,0.00
2023-09-12T09:21:19.636Z,0.00
2023-09-12T09:22:24.225Z,0.00
2023-09-12T09:23:26.899Z,0.00
2023-09-12T09:24:29.724Z,0.00
2023-09-12T09:25:39.000Z,0.00
2023-09-12T09:26:49.768Z,0.00
2023-09-12T09:27:52.584Z,0.00
2023-09-12T09:29:11.642Z,0.00
2023-09-12T09:30:15.671Z,0.00
2023-09-12T09:31:19.163Z,0.00
2023-09-12T09:32:23.636Z,0.97
2023-09-12T09:33:29.060Z,6.58
2023-09-12T09:34:34.242Z,7.63
2023-09-12T09:35:39.335Z,6.70
2023-09-12T09:36:45.205Z,7.38
2023-09-12T09:37:48.755Z,7.37
2023-09-12T09:38:52.847Z,6.62
2023-09-12T09:39:57.226Z,5.65
2023-09-12T09:41:01.722Z,5.50
2023-09-12T09:42:05.903Z,5.55
2023-09-12T09:43:10.625Z,5.73
2023-09-12T09:44:16.160Z,6.13
2023-09-12T09:45:20.632Z,5.12
2023-09-12T09:46:24.549Z,5.15
2023-09-12T09:47:27.611Z,5.28
2023-09-12T09:48:33.093Z,4.42
2023-09-12T09:49:36.061Z,4.65
2023-09-12T09:50:38.770Z,5.73
2023-09-12T09:51:46.265Z,5.42
2023-09-12T09:52:55.018Z,5.68
2023-09-12T09:53:59.503Z,5.50
2023-09-12T09:55:02.856Z,5.25
2023-09-12T09:56:12.839Z,5.08
2023-09-12T09:57:16.402Z,5.43
2023-09-12T09:58:20.972Z,5.00
2023-09-12T09:59:27.455Z,4.87
2023-09-12T10:00:31.928Z,4.88
2023-09-12T10:01:38.694Z,4.77
2023-09-12T10:02:43.054Z,4.58
2023-09-12T10:03:51.105Z,4.32
2023-09-12T10:06:06.287Z,4.87
2023-09-12T10:07:11.785Z,4.63
2023-09-12T10:08:19.535Z,4.60
2023-09-12T10:09:25.053Z,4.63
2023-09-12T10:10:30.665Z,4.70
2023-09-12T10:11:34.974Z,4.28
2023-09-12T10:12:40.980Z,5.15
2023-09-12T10:13:51.382Z,0.92
2023-09-12T10:14:54.767Z,0.00
2023-09-12T10:15:59.796Z,0.00
2023-09-12T10:17:07.621Z,0.00
2023-09-12T10:19:40.932Z,0.00
2023-09-12T10:20:51.507Z,0.00
2023-09-12T10:22:03.695Z,0.00
2023-09-12T10:23:39.073Z,0.00
2023-09-12T10:24:50.486Z,0.00
2023-09-12T10:25:56.225Z,0.00
2023-09-12T10:27:02.543Z,0.00
2023-09-12T10:28:09.125Z,0.00
2023-09-12T10:29:19.253Z,0.00
2023-09-12T10:30:46.965Z,0.00
2023-09-12T10:31:55.206Z,0.00
2023-09-12T10:33:06.401Z,0.00
2023-09-12T10:35:35.792Z,0.00
2023-09-12T10:37:11.493Z,0.00
2023-09-12T10:39:08.104Z,0.00
2023-09-12T10:41:36.127Z,0.00
2023-09-12T10:42:43.458Z,0.00
2023-09-12T10:43:50.429Z,0.00
2023-09-12T10:44:57.828Z,0.00
2023-09-12T10:46:06.184Z,0.00
2023-09-12T10:47:32.324Z,0.00
2023-09-12T10:48:39.527Z,0.00
2023-09-12T10:49:46.373Z,0.00
2023-09-12T10:50:52.892Z,0.00
2023-09-12T10:51:55.724Z,0.00
2023-09-12T10:53:13.250Z,0.00
2023-09-12T10:54:40.440Z,0.00
2023-09-12T10:55:43.795Z,0.00
2023-09-12T10:56:51.928Z,0.00
2023-09-12T10:58:08.373Z,0.00
2023-09-12T10:59:13.147Z,0.00
2023-09-12T11:00:16.239Z,0.00
2023-09-12T11:01:26.636Z,0.00
2023-09-12T11:02:32.076Z,0.00
2023-09-12T11:03:35.040Z,0.00
2023-09-12T11:04:39.020Z,0.00
2023-09-12T11:05:55.148Z,0.00
2023-09-12T11:06:59.735Z,0.00
2023-09-12T11:08:05.203Z,0.00
2023-09-12T11:09:20.606Z,0.00
2023-09-12T11:10:24.427Z,0.00
2023-09-12T11:11:27.367Z,0.00
2023-09-12T11:12:36.838Z,0.00
2023-09-12T11:13:46.826Z,0.00
2023-09-12T11:15:06.936Z,0.00
2023-09-12T11:16:16.122Z,0.00
2023-09-12T11:17:23.888Z,0.00
2023-09-12T11:18:27.291Z,0.00
2023-09-12T11:19:29.995Z,0.00
2023-09-12T11:21:05.013Z,0.00
2023-09-12T11:22:26.038Z,0.00
2023-09-12T11:23:28.958Z,0.00
2023-09-12T11:24:45.718Z,0.00
2023-09-12T11:25:50.423Z,0.00
2023-09-12T11:27:10.541Z,0.00
2023-09-12T11:28:14.019Z,0.00
2023-09-12T11:29:42.268Z,0.00
2023-09-12T11:30:58.654Z,0.00
2023-09-12T11:32:04.676Z,0.00
2023-09-12T11:33:12.776Z,0.00
2023-09-12T11:34:16.439Z,0.00
2023-09-12T11:35:27.214Z,0.00
2023-09-12T11:36:32.159Z,0.00
2023-09-12T11:37:37.188Z,0.00
2023-09-12T11:38:39.854Z,0.00
2023-09-12T11:39:42.590Z,0.00
2023-09-12T11:40:47.130Z,0.00
2023-09-12T11:41:50.548Z,0.00
2023-09-12T11:42:53.479Z,0.00
2023-09-12T11:43:56.972Z,0.00
2023-09-12T11:45:00.272Z,0.00
2023-09-12T11:46:04.074Z,0.00
2023-09-12T11:47:08.778Z,0.00
2023-09-12T11:48:12.595Z,0.00
2023-09-12T11:49:16.281Z,0.00
2023-09-12T11:50:37.173Z,0.00
2023-09-12T11:51:51.807Z,0.00
2023-09-12T11:53:05.305Z,0.00
2023-09-12T11:54:08.552Z,0.00
2023-09-12T11:55:11.199Z,0.00
2023-09-12T11:56:15.250Z,0.00
2023-09-12T11:57:55.614Z,0.00
2023-09-12T12:01:15.479Z,0.00
2023-09-12T12:02:18.954Z,0.00
2023-09-12T12:03:24.047Z,0.00
2023-09-12T12:04:27.284Z,0.00
2023-09-12T12:05:31.416Z,0.00
2023-09-12T12:06:36.567Z,0.00
2023-09-12T12:07:40.004Z,0.00
2023-09-12T12:08:43.230Z,0.00
2023-09-12T12:09:45.922Z,0.00
2023-09-12T12:10:52.596Z,0.00
2023-09-12T12:11:55.234Z,0.00
2023-09-12T12:12:57.993Z,0.00
2023-09-12T12:14:11.426Z,0.00
2023-09-12T12:15:14.867Z,0.00
2023-09-12T12:16:20.772Z,0.00
2023-09-12T12:17:24.808Z,0.00
2023-09-12T12:18:30.842Z,0.00
2023-09-12T12:19:33.764Z,0.00
2023-09-12T12:20:41.073Z,0.00
2023-09-12T12:21:44.272Z,0.00
2023-09-12T12:22:47.827Z,0.00
2023-09-12T12:24:01.329Z,0.00
2023-09-12T12:25:08.766Z,0.00
2023-09-12T12:26:11.973Z,0.00
2023-09-12T12:27:17.746Z,0.00
2023-09-12T12:28:21.471Z,0.00
2023-09-12T12:29:24.162Z,0.00
2023-09-12T12:30:27.059Z,0.00
2023-09-12T12:31:31.716Z,0.00
2023-09-12T12:32:38.493Z,0.00
2023-09-12T12:34:13.212Z,0.00
2023-09-12T12:35:10.746Z,0.00
2023-09-12T12:36:27.277Z,0.00
2023-09-12T12:37:34.415Z,0.00
2023-09-12T12:38:44.807Z,0.00
2023-09-12T12:40:55.986Z,0.00
2023-09-12T12:41:58.726Z,0.00
2023-09-12T12:43:02.351Z,0.00
2023-09-12T12:44:06.110Z,0.00
2023-09-12T12:45:20.613Z,0.00
2023-09-12T12:46:23.566Z,0.00
2023-09-12T12:47:26.470Z,0.00
2023-09-12T12:48:37.735Z,0.00
2023-09-12T12:49:40.814Z,0.00
2023-09-12T12:50:44.188Z,0.00
2023-09-12T12:51:49.918Z,0.00
2023-09-12T12:52:53.409Z,0.00
2023-09-12T12:54:03.860Z,0.00
2023-09-12T12:55:18.007Z,0.00
2023-09-12T12:56:31.604Z,0.00
2023-09-12T12:57:38.471Z,0.00
2023-09-12T12:58:49.736Z,0.00
2023-09-12T12:59:52.713Z,0.00
2023-09-12T13:00:55.632Z,0.00
2023-09-12T13:01:58.279Z,0.00
2023-09-12T13:03:00.924Z,0.00
2023-09-12T13:04:06.413Z,0.00
2023-09-12T13:05:29.472Z,0.00
2023-09-12T13:06:36.898Z,0.00
2023-09-12T13:07:39.603Z,0.00
2023-09-12T13:08:46.048Z,0.00
2023-09-12T13:09:49.408Z,0.00
2023-09-12T13:10:54.947Z,0.00
2023-09-12T13:12:18.974Z,0.00
2023-09-12T13:13:21.801Z,0.00
2023-09-12T13:14:45.391Z,0.00
2023-09-12T13:15:48.444Z,0.00
2023-09-12T13:16:51.232Z,0.00
2023-09-12T13:17:54.023Z,0.00
2023-09-12T13:18:57.340Z,0.00
2023-09-12T13:20:00.532Z,0.00
2023-09-12T13:21:03.988Z,0.00
2023-09-12T13:22:07.105Z,0.00
2023-09-12T13:23:09.967Z,0.00
2023-09-12T13:24:14.638Z,0.00
2023-09-12T13:25:17.422Z,0.00
2023-09-12T13:26:20.280Z,0.00
2023-09-12T13:27:23.358Z,0.00
2023-09-12T13:28:28.962Z,0.00
2023-09-12T13:29:31.956Z,0.00
2023-09-12T13:30:35.067Z,0.00
2023-09-12T13:31:39.009Z,0.00
2023-09-12T13:32:41.804Z,0.00
2023-09-12T13:33:44.935Z,0.00
2023-09-12T13:34:47.718Z,0.00
2023-09-12T13:35:51.017Z,0.00
2023-09-12T13:37:05.640Z,0.00
2023-09-12T13:38:14.936Z,0.00
2023-09-12T13:39:18.725Z,0.00
2023-09-12T13:40:22.447Z,0.00
2023-09-12T13:41:26.752Z,0.00
2023-09-12T13:42:32.527Z,0.00
2023-09-12T13:43:35.474Z,0.00
2023-09-12T13:44:38.465Z,0.00
2023-09-12T13:45:42.060Z,0.00
2023-09-12T13:46:48.903Z,0.00
2023-09-12T13:47:51.816Z,0.00
2023-09-12T13:48:54.683Z,0.00
2023-09-12T13:49:58.081Z,0.00
2023-09-12T13:51:00.794Z,0.00
2023-09-12T13:52:03.994Z,0.00
2023-09-12T13:53:09.536Z,0.00
2023-09-12T13:54:15.952Z,0.00
2023-09-12T13:55:47.220Z,0.00
2023-09-12T13:56:45.540Z,0.00
2023-09-12T13:57:52.952Z,0.00
2023-09-12T13:58:57.182Z,0.00
2023-09-12T13:59:59.922Z,0.00
2023-09-12T14:01:04.082Z,0.00
2023-09-12T14:02:07.029Z,0.00
2023-09-12T14:03:10.135Z,0.00
2023-09-12T14:04:13.046Z,0.00
2023-09-12T14:05:16.230Z,0.00
2023-09-12T14:06:19.371Z,0.00
2023-09-12T14:07:23.706Z,0.00
2023-09-12T14:08:26.653Z,0.00
2023-09-12T14:09:29.614Z,0.00
2023-09-12T14:10:37.127Z,0.00
2023-09-12T14:11:41.049Z,0.00
2023-09-12T14:12:46.310Z,0.00
2023-09-12T14:13:55.470Z,0.00
2023-09-12T14:15:08.861Z,0.00
2023-09-12T14:16:12.233Z,0.00
2023-09-12T14:17:15.312Z,0.00
2023-09-12T14:18:19.226Z,0.00
2023-09-12T14:19:23.595Z,0.00
2023-09-12T14:20:27.660Z,0.00
2023-09-12T14:21:31.226Z,0.00
2023-09-12T14:22:35.472Z,0.00
2023-09-12T14:23:38.753Z,0.00
2023-09-12T14:24:41.735Z,0.00